createdAt,value
2019-05-20T00:00:07.194Z,31
2019-05-20T00:05:07.596Z,35
2019-05-20T00:10:07.349Z,38
2019-05-20T00:15:07.750Z,40
2019-05-20T00:20:07.320Z,36
2019-05-20T00:25:07.398Z,38
2019-05-20T00:30:07.263Z,38
2019-05-20T00:35:07.485Z,37
2019-05-20T00:40:07.216Z,39
2019-05-20T00:45:07.848Z,35
2019-05-20T00:50:07.150Z,34
2019-05-20T00:55:08.413Z,37
2019-05-20T01:00:07.726Z,31
2019-05-20T01:05:08.547Z,33
2019-05-20T01:10:17.173Z,38
2019-05-20T01:15:07.334Z,42
2019-05-20T01:20:08.549Z,38
2019-05-20T01:25:06.987Z,38
2019-05-20T01:30:07.218Z,37
2019-05-20T01:35:07.572Z,35
2019-05-20T01:40:07.300Z,37
2019-05-20T01:45:07.704Z,41
2019-05-20T01:50:09.915Z,38
2019-05-20T01:55:08.131Z,38
2019-05-20T02:00:07.786Z,38
2019-05-20T02:05:07.450Z,38
2019-05-20T02:10:07.021Z,40
2019-05-20T02:15:07.481Z,39
2019-05-20T02:20:07.248Z,37
2019-05-20T02:25:07.850Z,38
2019-05-20T02:30:07.644Z,39
2019-05-20T02:35:07.162Z,34
2019-05-20T02:40:07.407Z,37
2019-05-20T02:45:07.620Z,34
2019-05-20T02:50:07.844Z,32
2019-05-20T02:55:07.220Z,34
2019-05-20T03:00:07.698Z,36
2019-05-20T03:05:07.195Z,34
2019-05-20T03:10:06.999Z,37
2019-05-20T03:15:07.482Z,37
2019-05-20T03:20:07.054Z,36
2019-05-20T03:25:07.043Z,36
2019-05-20T03:30:07.426Z,35
2019-05-20T03:35:06.690Z,40
2019-05-20T03:40:07.013Z,35
2019-05-20T03:45:06.926Z,36
2019-05-20T03:50:06.716Z,45
2019-05-20T03:55:06.747Z,38
2019-05-20T04:00:07.263Z,41
2019-05-20T04:05:07.276Z,39
2019-05-20T04:10:07.636Z,45
2019-05-20T04:15:06.973Z,44
2019-05-20T04:20:07.027Z,44
2019-05-20T04:25:07.196Z,43
2019-05-20T04:30:06.910Z,45
2019-05-20T04:35:21.718Z,44
2019-05-20T04:40:06.644Z,44
2019-05-20T04:45:06.994Z,40
2019-05-20T04:50:06.981Z,46
2019-05-20T04:55:06.623Z,48
2019-05-20T05:00:07.199Z,41
2019-05-20T05:05:07.599Z,45
2019-05-20T05:10:08.575Z,45
2019-05-20T05:15:07.992Z,39
2019-05-20T05:20:07.833Z,47
2019-05-20T05:25:06.645Z,44
2019-05-20T05:30:07.702Z,45
2019-05-20T05:35:06.914Z,44
2019-05-20T05:40:08.243Z,41
2019-05-20T05:45:06.760Z,45
2019-05-20T05:50:06.663Z,44
2019-05-20T05:55:06.849Z,48
2019-05-20T06:00:06.865Z,44
2019-05-20T06:05:06.847Z,46
2019-05-20T06:10:06.881Z,44
2019-05-20T06:15:06.870Z,44
2019-05-20T06:20:06.957Z,44
2019-05-20T06:25:06.350Z,46
2019-05-20T06:30:07.026Z,44
2019-05-20T06:35:06.904Z,44
2019-05-20T06:40:06.714Z,42
2019-05-20T06:45:06.642Z,41
2019-05-20T06:50:06.876Z,44
2019-05-20T06:55:06.551Z,43
2019-05-20T07:00:07.049Z,41
2019-05-20T07:05:06.400Z,44
2019-05-20T07:10:07.098Z,41
2019-05-20T07:15:06.805Z,38
2019-05-20T07:20:06.898Z,45
2019-05-20T07:25:06.578Z,46
2019-05-20T07:30:07.558Z,39
2019-05-20T07:35:06.630Z,37
2019-05-20T07:40:06.999Z,41
2019-05-20T07:45:06.719Z,41
2019-05-20T07:50:06.817Z,40
2019-05-20T07:55:08.253Z,40
2019-05-20T08:00:06.873Z,39
2019-05-20T08:05:06.628Z,41
2019-05-20T08:10:06.984Z,45
2019-05-20T08:15:07.454Z,40
2019-05-20T08:20:07.372Z,43
2019-05-20T08:25:06.546Z,41
2019-05-20T08:30:06.946Z,43
2019-05-20T08:35:07.886Z,40
2019-05-20T08:40:07.030Z,41
2019-05-20T08:45:06.360Z,43
2019-05-20T08:50:11.297Z,41
2019-05-20T08:55:07.888Z,35
2019-05-20T09:00:06.497Z,38
2019-05-20T09:05:06.727Z,39
2019-05-20T09:10:06.690Z,40
2019-05-20T09:15:08.423Z,42
2019-05-20T09:20:06.690Z,46
2019-05-20T09:25:06.408Z,46
2019-05-20T09:30:06.248Z,44
2019-05-20T09:35:06.400Z,49
2019-05-20T09:40:06.596Z,48
2019-05-20T09:45:06.430Z,49
2019-05-20T09:50:06.681Z,50
2019-05-20T09:55:06.453Z,52
2019-05-20T10:00:06.616Z,49
2019-05-20T10:05:06.155Z,49
2019-05-20T10:10:06.356Z,52
2019-05-20T10:15:09.268Z,49
2019-05-20T10:20:06.643Z,51
2019-05-20T10:25:06.408Z,50
2019-05-20T10:30:06.467Z,50
2019-05-20T10:35:18.568Z,54
2019-05-20T10:40:06.593Z,51
2019-05-20T10:45:06.178Z,50
2019-05-20T10:50:06.566Z,44
2019-05-20T10:55:06.392Z,50
2019-05-20T11:00:06.883Z,51
2019-05-20T11:05:06.170Z,49
2019-05-20T11:10:06.191Z,46
2019-05-20T11:15:06.496Z,46
2019-05-20T11:20:06.473Z,47
2019-05-20T11:25:06.051Z,47
2019-05-20T11:30:06.416Z,47
2019-05-20T11:35:06.339Z,43
2019-05-20T11:40:06.716Z,47
2019-05-20T11:45:06.087Z,46
2019-05-20T11:50:06.350Z,45
2019-05-20T11:55:07.775Z,41
2019-05-20T12:00:06.341Z,40
2019-05-20T12:05:05.906Z,40
2019-05-20T12:10:06.432Z,37
2019-05-20T12:15:07.730Z,42
2019-05-20T12:20:07.226Z,46
2019-05-20T12:25:05.955Z,49
2019-05-20T12:30:06.459Z,47
2019-05-20T12:35:07.442Z,40
2019-05-20T12:40:07.871Z,42
2019-05-20T12:45:06.102Z,46
2019-05-20T12:50:06.108Z,45
2019-05-20T12:55:09.220Z,41
2019-05-20T13:00:06.195Z,48
2019-05-20T13:05:06.029Z,45
2019-05-20T13:10:26.106Z,43
2019-05-20T13:15:07.123Z,44
2019-05-20T13:20:06.371Z,46
2019-05-20T13:25:06.122Z,41
2019-05-20T13:30:06.372Z,35
2019-05-20T13:35:07.224Z,39
2019-05-20T13:40:05.928Z,37
2019-05-20T13:45:05.857Z,36
2019-05-20T13:50:06.261Z,36
2019-05-20T13:55:07.005Z,35
2019-05-20T14:00:06.250Z,29
2019-05-20T14:05:06.085Z,35
2019-05-20T14:10:06.068Z,33
2019-05-20T14:15:06.480Z,33
2019-05-20T14:20:06.221Z,32
2019-05-20T14:25:06.125Z,35
2019-05-20T14:30:06.104Z,30
2019-05-20T14:35:05.986Z,29
2019-05-20T14:40:06.413Z,35
2019-05-20T14:45:05.824Z,31
2019-05-20T14:50:05.726Z,46
2019-05-20T14:55:05.756Z,48
2019-05-20T15:00:05.882Z,39
2019-05-20T15:05:06.069Z,39
2019-05-20T15:10:05.847Z,37
2019-05-20T15:15:06.102Z,35
2019-05-20T15:20:06.174Z,40
2019-05-20T15:25:05.855Z,40
2019-05-20T15:30:05.656Z,34
2019-05-20T15:35:06.063Z,40
2019-05-20T15:40:05.897Z,39
2019-05-20T15:45:05.661Z,39
2019-05-20T15:50:08.277Z,37
2019-05-20T15:55:05.969Z,39
2019-05-20T16:00:06.243Z,38
2019-05-20T16:05:05.894Z,40
2019-05-20T16:10:06.111Z,44
2019-05-20T16:15:05.961Z,48
2019-05-20T16:20:07.190Z,46
2019-05-20T16:25:06.084Z,40
2019-05-20T16:30:07.295Z,44
2019-05-20T16:35:05.781Z,49
2019-05-20T16:40:06.454Z,46
2019-05-20T16:45:05.872Z,45
2019-05-20T16:50:06.726Z,48
2019-05-20T16:55:05.664Z,49
2019-05-20T17:00:14.660Z,47
2019-05-20T17:05:05.933Z,46
2019-05-20T17:10:05.751Z,45
2019-05-20T17:15:06.308Z,45
2019-05-20T17:20:06.227Z,40
2019-05-20T17:25:05.972Z,46
2019-05-20T17:30:05.929Z,49
2019-05-20T17:35:05.632Z,48
2019-05-20T17:40:06.412Z,47
2019-05-20T17:45:05.812Z,49
2019-05-20T17:50:06.191Z,50
2019-05-20T17:55:05.479Z,45
2019-05-20T18:00:05.850Z,45
2019-05-20T18:05:06.019Z,45
2019-05-20T18:10:07.081Z,45
2019-05-20T18:15:05.773Z,46
2019-05-20T18:20:05.768Z,48
2019-05-20T18:25:05.893Z,45
2019-05-20T18:30:05.512Z,48
2019-05-20T18:35:05.616Z,47
2019-05-20T18:40:13.858Z,52
2019-05-20T18:45:05.438Z,51
2019-05-20T18:50:05.635Z,48
2019-05-20T18:55:05.804Z,46
2019-05-20T19:00:05.917Z,47
2019-05-20T19:05:05.837Z,54
2019-05-20T19:10:05.519Z,50
2019-05-20T19:15:05.656Z,50
2019-05-20T19:20:05.375Z,51
2019-05-20T19:25:06.863Z,51
2019-05-20T19:30:05.554Z,54
2019-05-20T19:35:05.719Z,52
2019-05-20T19:40:07.058Z,51
2019-05-20T19:45:05.602Z,53
2019-05-20T19:50:05.442Z,50
2019-05-20T19:55:05.722Z,52
2019-05-20T20:00:06.295Z,51
2019-05-20T20:05:05.671Z,45
2019-05-20T20:10:05.529Z,47
2019-05-20T20:15:05.632Z,47
2019-05-20T20:20:05.523Z,45
2019-05-20T20:25:05.829Z,46
2019-05-20T20:30:05.831Z,45
2019-05-20T20:35:05.406Z,48
2019-05-20T20:40:05.676Z,47
2019-05-20T20:45:05.928Z,50
2019-05-20T20:50:05.640Z,50
2019-05-20T20:55:05.497Z,53
2019-05-20T21:00:06.276Z,52
2019-05-20T21:05:05.476Z,50
2019-05-20T21:10:05.958Z,49
2019-05-20T21:15:05.506Z,47
2019-05-20T21:20:05.793Z,48
2019-05-20T21:25:05.338Z,40
2019-05-20T21:30:05.762Z,47
2019-05-20T21:35:05.677Z,39
2019-05-20T21:40:06.167Z,44
2019-05-20T21:45:05.354Z,44
2019-05-20T21:50:06.715Z,43
2019-05-20T21:55:05.505Z,40
2019-05-20T22:00:06.113Z,36
2019-05-20T22:05:05.613Z,31
2019-05-20T22:10:05.920Z,35
2019-05-20T22:15:05.687Z,29
2019-05-20T22:20:06.052Z,24
2019-05-20T22:25:07.359Z,24
2019-05-20T22:30:09.146Z,34
2019-05-20T22:35:05.702Z,32
2019-05-20T22:40:06.854Z,30
2019-05-20T22:45:06.934Z,27
2019-05-20T22:50:06.083Z,36
2019-05-20T22:55:09.677Z,34
2019-05-20T23:00:06.347Z,43
2019-05-20T23:05:05.890Z,41
2019-05-20T23:10:07.042Z,49
2019-05-20T23:15:05.454Z,44
2019-05-20T23:20:11.120Z,53
2019-05-20T23:25:05.522Z,50
2019-05-20T23:30:15.589Z,49
2019-05-20T23:35:05.789Z,50
2019-05-20T23:40:06.426Z,50
2019-05-20T23:45:05.241Z,47
2019-05-20T23:50:07.057Z,50
2019-05-20T23:55:05.698Z,51
